Time;durP1;ratioP1;P1;durP2;ratioP2;P2;SDS_P1;SDS_P2;PMS_P1;PMS_P2;Temp;Humidity;BMP_temperature;BMP_pressure;BME280_temperature;BME280_humidity;BME280_pressure;Samples;Min_cycle;Max_cycle;Signal;HPM_P1;HPM_P2
2022/12/11 00:02:26;;;;;;;32.17;15.75;;;4.50;99.90;;;;;;4959783;28;20721;-75
2022/12/11 00:04:54;;;;;;;32.05;16.10;;;4.50;99.90;;;;;;4988008;28;20168;-74
2022/12/11 00:07:20;;;;;;;33.63;16.30;;;4.50;99.90;;;;;;4995877;28;20562;-75
2022/12/11 00:09:50;;;;;;;37.55;16.40;;;4.50;99.90;;;;;;4995346;28;20256;-74
2022/12/11 00:12:18;;;;;;;35.60;16.60;;;4.50;99.90;;;;;;4995480;28;20224;-75
2022/12/11 00:14:45;;;;;;;34.05;17.42;;;4.50;99.90;;;;;;5011866;28;20623;-74
2022/12/11 00:17:11;;;;;;;37.05;17.55;;;4.50;99.90;;;;;;4995759;28;20560;-74
2022/12/11 00:19:37;;;;;;;38.43;18.03;;;4.50;99.90;;;;;;4968049;28;20281;-74
2022/12/11 00:22:05;;;;;;;34.53;17.23;;;4.50;99.90;;;;;;4975753;28;20551;-74
2022/12/11 00:24:31;;;;;;;34.08;16.80;;;4.50;99.90;;;;;;4976357;28;20987;-74
2022/12/11 00:26:59;;;;;;;34.72;16.23;;;4.50;99.90;;;;;;4960030;28;20182;-74
2022/12/11 00:29:25;;;;;;;36.08;16.73;;;4.50;99.90;;;;;;4984490;28;20256;-74
2022/12/11 00:31:51;;;;;;;33.50;17.70;;;4.50;99.90;;;;;;5012501;28;20690;-74
2022/12/11 00:34:17;;;;;;;39.45;17.90;;;4.50;99.90;;;;;;4987310;28;20440;-74
2022/12/11 00:36:43;;;;;;;38.87;18.20;;;4.50;99.90;;;;;;4994757;28;20245;-74
2022/12/11 00:39:09;;;;;;;39.47;16.70;;;4.50;99.90;;;;;;4988022;28;20488;-74
2022/12/11 00:41:36;;;;;;;34.60;15.88;;;4.50;99.90;;;;;;4990599;28;20213;-75
2022/12/11 00:44:04;;;;;;;38.65;17.13;;;4.50;99.90;;;;;;4975169;28;20174;-74
2022/12/11 00:46:30;;;;;;;36.08;17.02;;;4.50;99.90;;;;;;4975768;28;20178;-74
2022/12/11 00:48:57;;;;;;;46.22;18.52;;;4.50;99.90;;;;;;4997643;28;20169;-74
2022/12/11 00:51:24;;;;;;;37.22;16.25;;;4.50;99.90;;;;;;4978240;28;20292;-74
2022/12/11 00:53:51;;;;;;;33.92;15.52;;;4.50;99.90;;;;;;4991176;28;20213;-74
2022/12/11 00:56:20;;;;;;;34.90;15.43;;;4.50;99.90;;;;;;4959913;28;20265;-74
2022/12/11 00:58:48;;;;;;;37.25;17.63;;;4.50;99.90;;;;;;4962243;28;20750;-74
2022/12/11 01:01:17;;;;;;;36.67;17.48;;;4.50;99.90;;;;;;5012128;28;20288;-74
2022/12/11 01:03:46;;;;;;;34.80;16.40;;;4.50;99.90;;;;;;5011457;28;20189;-74
2022/12/11 01:06:17;;;;;;;30.00;15.55;;;4.50;99.90;;;;;;4972128;28;20245;-74
2022/12/11 01:08:44;;;;;;;34.72;15.48;;;4.50;99.90;;;;;;4984274;28;20166;-74
2022/12/11 01:11:12;;;;;;;33.38;16.27;;;4.50;99.90;;;;;;4986622;28;20205;-74
2022/12/11 01:13:38;;;;;;;33.33;15.73;;;4.50;99.90;;;;;;4978126;28;20613;-74
2022/12/11 01:16:13;;;;;;;30.25;15.43;;;4.50;99.90;;;;;;4989357;28;20635;-74
2022/12/11 01:18:42;;;;;;;39.58;17.23;;;4.50;99.90;;;;;;4984766;28;20204;-74
2022/12/11 01:21:12;;;;;;;38.15;17.20;;;4.50;99.90;;;;;;4989202;28;20265;-74
2022/12/11 01:23:39;;;;;;;34.30;15.93;;;4.50;99.90;;;;;;4975191;28;20174;-74
2022/12/11 01:26:13;;;;;;;35.25;15.40;;;4.50;99.90;;;;;;4997083;28;20182;-74
2022/12/11 01:28:40;;;;;;;30.08;15.50;;;4.50;99.90;;;;;;4988322;28;20474;-75
2022/12/11 01:31:15;;;;;;;28.50;15.27;;;4.50;99.90;;;;;;4981531;28;20252;-75
2022/12/11 01:33:49;;;;;;;23.73;12.65;;;4.50;99.90;;;;;;4967359;28;20257;-74
2022/12/11 01:36:20;;;;;;;30.85;14.63;;;4.50;99.90;;;;;;5004623;28;20177;-74
2022/12/11 01:38:48;;;;;;;28.58;14.35;;;4.50;99.90;;;;;;5001025;28;20232;-75
2022/12/11 01:41:17;;;;;;;30.65;13.57;;;4.50;99.90;;;;;;5012234;28;20703;-74
2022/12/11 01:44:03;;;;;;;29.52;14.00;;;4.50;99.90;;;;;;4990237;28;20211;-75
2022/12/11 01:46:31;;;;;;;30.60;13.32;;;4.50;99.90;;;;;;4999153;28;20196;-74
2022/12/11 01:48:59;;;;;;;31.65;15.00;;;4.50;99.90;;;;;;5017240;28;20173;-74
2022/12/11 01:51:29;;;;;;;30.55;14.25;;;4.40;99.90;;;;;;4986578;28;20253;-74
2022/12/11 01:54:06;;;;;;;27.80;14.85;;;4.40;99.90;;;;;;4949743;28;20410;-74
2022/12/11 01:56:35;;;;;;;26.33;13.13;;;4.40;99.90;;;;;;4975060;28;20216;-74
2022/12/11 01:59:07;;;;;;;31.40;14.40;;;4.40;99.90;;;;;;5000801;28;20185;-74
2022/12/11 02:01:39;;;;;;;26.25;13.45;;;4.40;99.90;;;;;;4990706;28;20214;-74
2022/12/11 02:04:07;;;;;;;28.70;14.85;;;4.50;99.90;;;;;;4975940;28;20181;-74
2022/12/11 02:06:41;;;;;;;22.05;13.02;;;4.40;99.90;;;;;;4965437;28;20178;-75
2022/12/11 02:09:13;;;;;;;32.00;13.65;;;4.50;99.90;;;;;;4980874;28;20620;-74
2022/12/11 02:12:10;;;;;;;31.40;14.10;;;4.50;99.90;;;;;;4974745;28;20364;-74
2022/12/11 02:14:54;;;;;;;28.20;13.35;;;4.50;99.90;;;;;;4983981;28;20215;-74
2022/12/11 02:17:48;;;;;;;25.83;14.50;;;4.50;99.90;;;;;;4983884;28;20328;-74
2022/12/11 02:20:38;;;;;;;27.85;13.57;;;4.40;99.90;;;;;;4950142;28;20490;-75
2022/12/11 02:23:23;;;;;;;31.88;13.70;;;4.40;99.90;;;;;;4983414;28;20299;-74
2022/12/11 02:26:20;;;;;;;28.58;13.10;;;4.50;99.90;;;;;;4980985;28;20241;-74
2022/12/11 02:28:52;;;;;;;28.42;13.52;;;4.40;99.90;;;;;;4964953;28;20249;-74
2022/12/11 02:31:37;;;;;;;26.88;14.63;;;4.50;99.90;;;;;;4987223;28;20208;-74
2022/12/11 02:34:17;;;;;;;27.48;13.20;;;4.40;99.90;;;;;;4989874;28;20256;-74
2022/12/11 02:36:49;;;;;;;28.33;13.95;;;4.40;99.90;;;;;;4980659;28;20209;-74
2022/12/11 02:39:21;;;;;;;27.65;12.50;;;4.40;99.90;;;;;;4994570;28;20620;-74
2022/12/11 02:41:49;;;;;;;28.42;15.07;;;4.40;99.90;;;;;;4977902;28;20217;-74
2022/12/11 02:44:20;;;;;;;24.77;13.05;;;4.40;99.90;;;;;;4981484;28;20202;-74
2022/12/11 02:46:46;;;;;;;29.48;14.00;;;4.40;99.90;;;;;;4980158;28;20174;-74
2022/12/11 02:49:13;;;;;;;28.60;14.18;;;4.40;99.90;;;;;;4986459;28;20664;-74
2022/12/11 02:51:41;;;;;;;28.20;13.95;;;4.40;99.90;;;;;;4961393;28;20202;-74
2022/12/11 02:54:14;;;;;;;25.88;14.05;;;4.40;99.90;;;;;;4978022;28;20178;-74
2022/12/11 02:56:49;;;;;;;29.08;13.82;;;4.40;99.90;;;;;;4994958;28;20183;-74
2022/12/11 02:59:22;;;;;;;29.27;13.15;;;4.40;99.90;;;;;;4992984;28;20169;-74
2022/12/11 03:01:49;;;;;;;23.33;12.77;;;4.40;99.90;;;;;;4980916;28;20229;-74
2022/12/11 03:04:15;;;;;;;26.45;13.88;;;4.50;99.90;;;;;;4998963;28;20261;-74
2022/12/11 03:06:50;;;;;;;24.38;13.52;;;4.40;99.90;;;;;;4978497;28;20639;-74
2022/12/11 03:09:20;;;;;;;25.35;14.77;;;4.50;99.90;;;;;;4999542;28;20170;-74
2022/12/11 03:11:46;;;;;;;26.73;13.32;;;4.50;99.90;;;;;;4961445;28;20206;-73
2022/12/11 03:14:15;;;;;;;24.65;13.43;;;4.40;99.90;;;;;;5008373;28;20189;-74
2022/12/11 03:16:58;;;;;;;31.17;14.38;;;4.40;99.90;;;;;;4996284;28;20532;-75
2022/12/11 03:19:33;;;;;;;22.92;12.40;;;4.40;99.90;;;;;;5008824;28;20264;-74
2022/12/11 03:22:08;;;;;;;25.17;13.52;;;4.40;99.90;;;;;;4996527;28;20205;-74
2022/12/11 03:24:46;;;;;;;25.67;11.38;;;4.40;99.90;;;;;;4964803;28;20180;-74
2022/12/11 03:27:29;;;;;;;28.23;13.98;;;4.40;99.90;;;;;;4977159;28;20169;-75
2022/12/11 03:30:05;;;;;;;25.73;13.20;;;4.40;99.90;;;;;;5013851;28;20228;-75
2022/12/11 03:32:55;;;;;;;31.38;13.93;;;4.40;99.90;;;;;;4996463;28;20201;-74
2022/12/11 03:35:33;;;;;;;30.13;13.75;;;4.40;99.90;;;;;;4992988;28;20807;-74
2022/12/11 03:38:09;;;;;;;28.52;13.00;;;4.40;99.90;;;;;;4978886;28;20188;-74
2022/12/11 03:40:40;;;;;;;25.73;12.40;;;4.40;99.90;;;;;;4968993;28;20237;-74
2022/12/11 03:43:06;;;;;;;21.67;12.00;;;4.40;99.90;;;;;;4979101;28;20210;-74
2022/12/11 03:45:33;;;;;;;29.58;13.95;;;4.50;99.90;;;;;;5005719;28;20178;-73
2022/12/11 03:48:01;;;;;;;24.77;13.57;;;4.40;99.90;;;;;;4977376;28;20545;-74
2022/12/11 03:50:30;;;;;;;23.77;12.50;;;4.40;99.90;;;;;;5001393;28;20177;-74
2022/12/11 03:52:58;;;;;;;25.48;12.90;;;4.40;99.90;;;;;;4978542;28;20182;-75
2022/12/11 03:55:28;;;;;;;25.27;13.63;;;4.40;99.90;;;;;;4966251;28;20272;-74
2022/12/11 03:57:54;;;;;;;31.17;15.15;;;4.40;99.90;;;;;;4979726;28;20238;-74
2022/12/11 04:00:20;;;;;;;28.45;12.82;;;4.40;99.90;;;;;;4976499;28;20567;-74
2022/12/11 04:03:11;;;;;;;24.95;13.20;;;4.40;99.90;;;;;;4976387;28;20210;-74
2022/12/11 04:05:32;;;;;;;30.65;13.05;;;4.40;99.90;;;;;;4983252;28;20541;-74
2022/12/11 04:07:58;;;;;;;32.87;15.40;;;4.40;99.90;;;;;;4959960;28;20185;-74
2022/12/11 04:10:24;;;;;;;26.43;13.43;;;4.40;99.90;;;;;;4982395;28;20451;-74
2022/12/11 04:12:50;;;;;;;25.25;13.13;;;4.40;99.90;;;;;;5009489;28;20445;-74
2022/12/11 04:15:16;;;;;;;27.77;14.40;;;4.40;99.90;;;;;;4960230;28;20193;-74
2022/12/11 04:26:12;;;;;;;31.13;14.98;;;4.40;99.90;;;;;;4964491;28;20197;-74
2022/12/11 04:28:41;;;;;;;27.45;13.60;;;4.40;99.90;;;;;;4985177;28;20719;-74
2022/12/11 04:31:18;;;;;;;30.65;14.48;;;4.40;99.90;;;;;;4975762;28;20241;-74
2022/12/11 04:33:47;;;;;;;25.65;13.48;;;4.40;99.90;;;;;;4986562;28;20196;-73
2022/12/11 04:36:13;;;;;;;29.90;14.40;;;4.40;99.90;;;;;;4959553;28;20182;-74
2022/12/11 04:38:41;;;;;;;27.33;14.43;;;4.40;99.90;;;;;;4953586;28;20201;-75
2022/12/11 04:41:11;;;;;;;31.53;15.90;;;4.40;99.90;;;;;;4994314;28;20212;-74
2022/12/11 04:43:37;;;;;;;27.25;14.75;;;4.40;99.90;;;;;;4959541;28;20532;-74
2022/12/11 04:46:12;;;;;;;28.10;14.10;;;4.40;99.90;;;;;;4969572;28;20328;-74
2022/12/11 04:48:42;;;;;;;28.33;14.55;;;4.40;99.90;;;;;;4959002;28;20564;-75
2022/12/11 04:51:08;;;;;;;29.38;13.70;;;4.40;99.90;;;;;;4992610;28;20237;-74
2022/12/11 04:53:37;;;;;;;31.55;16.45;;;4.40;99.90;;;;;;4984065;28;20257;-75
2022/12/11 04:56:11;;;;;;;31.48;14.35;;;4.40;99.90;;;;;;4994880;28;20218;-74
2022/12/11 04:58:38;;;;;;;29.90;14.50;;;4.40;99.90;;;;;;4950186;28;20205;-74
2022/12/11 05:01:16;;;;;;;29.75;14.20;;;4.40;99.90;;;;;;4943304;28;20205;-74
2022/12/11 05:03:50;;;;;;;29.80;14.15;;;4.40;99.90;;;;;;4971535;28;20213;-74
2022/12/11 05:06:16;;;;;;;25.73;13.90;;;4.40;99.90;;;;;;4994577;28;20567;-74
2022/12/11 05:08:44;;;;;;;27.02;14.02;;;4.40;99.90;;;;;;4981849;28;20171;-74
2022/12/11 05:11:13;;;;;;;30.42;14.68;;;4.40;99.90;;;;;;4958997;28;20198;-74
2022/12/11 05:13:40;;;;;;;29.70;15.00;;;4.40;99.90;;;;;;4970005;28;20209;-73
2022/12/11 05:16:10;;;;;;;27.80;14.55;;;4.40;99.90;;;;;;4974888;28;20209;-75
2022/12/11 05:18:38;;;;;;;26.95;13.75;;;4.40;99.90;;;;;;4991463;28;20560;-75
2022/12/11 05:21:07;;;;;;;24.90;13.83;;;4.40;99.90;;;;;;4962371;28;20212;-74
2022/12/11 05:23:34;;;;;;;30.88;14.13;;;4.40;99.90;;;;;;5007674;28;20414;-74
2022/12/11 05:26:11;;;;;;;23.65;12.32;;;4.40;99.90;;;;;;4974993;28;20213;-74
2022/12/11 05:28:38;;;;;;;27.88;13.40;;;4.40;99.90;;;;;;4975312;28;20176;-75
2022/12/11 05:31:16;;;;;;;27.73;14.55;;;4.40;99.90;;;;;;4992347;28;20272;-74
2022/12/11 05:33:45;;;;;;;28.90;13.90;;;4.40;99.90;;;;;;4988173;28;20189;-75
2022/12/11 05:36:38;;;;;;;29.23;12.52;;;4.40;99.90;;;;;;4943003;28;20172;-74
2022/12/11 05:39:08;;;;;;;26.27;14.23;;;4.40;99.90;;;;;;4957824;28;20190;-74
2022/12/11 05:41:34;;;;;;;24.52;13.32;;;4.40;99.90;;;;;;4974911;28;20583;-74
2022/12/11 05:44:00;;;;;;;26.67;13.70;;;4.40;99.90;;;;;;4971669;28;20266;-74
2022/12/11 05:46:28;;;;;;;24.73;12.90;;;4.40;99.90;;;;;;4959873;28;20422;-74
2022/12/11 05:48:59;;;;;;;26.80;14.27;;;4.40;99.90;;;;;;4985634;28;20417;-74
2022/12/11 05:51:27;;;;;;;25.42;13.40;;;4.40;99.90;;;;;;4992933;28;20197;-74
2022/12/11 05:53:56;;;;;;;25.25;14.25;;;4.40;99.90;;;;;;4958815;28;20262;-74
2022/12/11 05:56:29;;;;;;;25.50;12.77;;;4.40;99.90;;;;;;4950780;28;20193;-74
2022/12/11 05:59:01;;;;;;;25.67;14.13;;;4.40;99.90;;;;;;4958863;28;20187;-74
2022/12/11 06:01:30;;;;;;;23.67;13.40;;;4.40;99.90;;;;;;4982223;28;20618;-74
2022/12/11 06:04:00;;;;;;;26.17;12.30;;;4.40;99.90;;;;;;5011589;28;20163;-74
2022/12/11 06:06:29;;;;;;;22.30;11.95;;;4.40;99.90;;;;;;4970216;28;20547;-74
2022/12/11 06:08:57;;;;;;;27.63;14.00;;;4.40;99.90;;;;;;4958712;28;20179;-73
2022/12/11 06:11:25;;;;;;;25.65;13.40;;;4.40;99.90;;;;;;4950271;28;20206;-74
2022/12/11 06:13:52;;;;;;;24.95;13.43;;;4.40;99.90;;;;;;4993240;28;20175;-74
2022/12/11 06:16:18;;;;;;;25.08;12.32;;;4.40;99.90;;;;;;5002803;28;20568;-74
2022/12/11 06:18:45;;;;;;;27.83;13.10;;;4.40;99.90;;;;;;5015716;28;20173;-74
2022/12/11 06:21:29;;;;;;;24.02;12.10;;;4.40;99.90;;;;;;5006422;28;20214;-74
2022/12/11 06:23:58;;;;;;;21.27;12.95;;;4.40;99.90;;;;;;4978479;28;20176;-74
2022/12/11 06:26:25;;;;;;;27.75;12.60;;;4.40;99.90;;;;;;4976965;28;20228;-74
2022/12/11 06:28:54;;;;;;;21.65;11.88;;;4.40;99.90;;;;;;4981481;28;20550;-74
2022/12/11 06:31:20;;;;;;;24.52;12.80;;;4.40;99.90;;;;;;4974230;28;20202;-74
2022/12/11 06:33:46;;;;;;;24.02;12.70;;;4.40;99.90;;;;;;5011883;28;20194;-74
2022/12/11 06:36:17;;;;;;;21.00;12.43;;;4.40;99.90;;;;;;4977817;28;20171;-74
2022/12/11 06:38:49;;;;;;;25.23;13.65;;;4.40;99.90;;;;;;4978386;28;20301;-75
2022/12/11 06:41:18;;;;;;;18.90;11.40;;;4.40;99.90;;;;;;5004699;28;20274;-74
2022/12/11 06:43:46;;;;;;;26.23;12.13;;;4.40;99.90;;;;;;5013883;28;20249;-74
2022/12/11 06:46:17;;;;;;;23.63;12.95;;;4.40;99.90;;;;;;4997097;28;20601;-75
2022/12/11 06:48:44;;;;;;;25.85;13.07;;;4.40;99.90;;;;;;4996537;28;20177;-74
2022/12/11 06:51:16;;;;;;;22.75;13.38;;;4.40;99.90;;;;;;5005218;28;20205;-74
2022/12/11 06:53:52;;;;;;;24.48;12.68;;;4.40;99.90;;;;;;5012040;28;20185;-74
2022/12/11 06:56:18;;;;;;;21.08;12.45;;;4.40;99.90;;;;;;4980939;28;20158;-74
2022/12/11 06:58:44;;;;;;;25.83;12.25;;;4.40;99.90;;;;;;4978890;28;20159;-74
2022/12/11 07:01:14;;;;;;;23.20;12.30;;;4.40;99.90;;;;;;5002368;28;20190;-74
2022/12/11 07:03:40;;;;;;;25.40;13.32;;;4.40;99.90;;;;;;4978230;28;20953;-74
2022/12/11 07:06:13;;;;;;;24.10;14.00;;;4.40;99.90;;;;;;4980796;28;20205;-74
2022/12/11 07:08:42;;;;;;;24.23;12.30;;;4.40;99.90;;;;;;4996251;28;20173;-74
2022/12/11 07:11:11;;;;;;;21.95;12.10;;;4.40;99.90;;;;;;4968825;28;20199;-74
2022/12/11 07:13:37;;;;;;;24.00;12.50;;;4.40;99.90;;;;;;4978616;28;20211;-74
2022/12/11 07:16:11;;;;;;;22.33;11.80;;;4.40;99.90;;;;;;5014206;28;20166;-74
2022/12/11 07:18:42;;;;;;;24.23;11.85;;;4.40;99.90;;;;;;4995728;28;20192;-74
2022/12/11 07:21:10;;;;;;;20.15;11.13;;;4.40;99.90;;;;;;4955953;28;20201;-74
2022/12/11 07:23:37;;;;;;;21.90;12.23;;;4.40;99.90;;;;;;4979952;28;20329;-74
2022/12/11 07:26:09;;;;;;;21.95;12.00;;;4.40;99.90;;;;;;4976411;28;20233;-74
2022/12/11 07:28:35;;;;;;;21.73;13.80;;;4.40;99.90;;;;;;4977126;28;20185;-74
2022/12/11 07:31:09;;;;;;;23.50;13.03;;;4.40;99.90;;;;;;4995566;28;20571;-74
2022/12/11 07:33:36;;;;;;;23.10;11.85;;;4.40;99.90;;;;;;4980411;28;20496;-75
2022/12/11 07:36:05;;;;;;;20.02;11.30;;;4.40;99.90;;;;;;4996323;28;20178;-75
2022/12/11 07:38:33;;;;;;;21.88;12.40;;;4.40;99.90;;;;;;4996160;28;20170;-74
2022/12/11 07:41:05;;;;;;;22.23;12.88;;;4.40;99.90;;;;;;4988104;28;20206;-75
2022/12/11 07:43:34;;;;;;;23.75;13.10;;;4.40;99.90;;;;;;4980249;28;20269;-74
2022/12/11 07:46:02;;;;;;;27.58;12.48;;;4.40;99.90;;;;;;4991118;28;20208;-74
2022/12/11 07:48:29;;;;;;;22.38;11.52;;;4.40;99.90;;;;;;4964101;28;20181;-74
2022/12/11 07:51:08;;;;;;;20.30;12.60;;;4.40;99.90;;;;;;4982527;28;20300;-74
2022/12/11 07:53:34;;;;;;;24.15;12.15;;;4.40;99.90;;;;;;4960986;28;20564;-74
2022/12/11 07:56:01;;;;;;;22.85;11.57;;;4.40;99.90;;;;;;5030480;23;20237;-80
2022/12/11 07:58:30;;;;;;;22.52;12.68;;;4.40;99.90;;;;;;4932410;29;20228;-81
2022/12/11 08:00:59;;;;;;;24.52;11.35;;;4.40;99.90;;;;;;4943634;29;20282;-80
2022/12/11 08:03:25;;;;;;;19.73;10.80;;;4.40;99.90;;;;;;4960976;29;20179;-81
2022/12/11 08:05:52;;;;;;;21.25;11.25;;;4.40;99.90;;;;;;4962994;28;20640;-80
2022/12/11 08:08:18;;;;;;;21.45;11.75;;;4.40;99.90;;;;;;4947071;28;20226;-80
2022/12/11 08:10:44;;;;;;;24.50;13.57;;;4.40;99.90;;;;;;4978694;28;20694;-80
2022/12/11 08:13:15;;;;;;;22.20;12.95;;;4.40;99.90;;;;;;4961206;28;20230;-79
2022/12/11 08:15:42;;;;;;;20.90;11.50;;;4.40;99.90;;;;;;4978282;28;20265;-78
2022/12/11 08:18:09;;;;;;;19.67;11.23;;;4.40;99.90;;;;;;4948075;28;20656;-79
2022/12/11 08:20:38;;;;;;;20.50;11.13;;;4.40;99.90;;;;;;4979296;28;20201;-79
2022/12/11 08:23:06;;;;;;;22.58;11.98;;;4.40;99.90;;;;;;4948433;28;20202;-80
2022/12/11 08:25:34;;;;;;;21.50;11.90;;;4.40;99.90;;;;;;4963900;28;20178;-78
2022/12/11 08:28:03;;;;;;;18.48;11.38;;;4.30;99.90;;;;;;4979004;28;20630;-77
2022/12/11 08:30:31;;;;;;;21.98;11.43;;;4.40;99.90;;;;;;4979342;28;20174;-78
2022/12/11 08:32:58;;;;;;;17.73;10.70;;;4.40;99.90;;;;;;4979641;28;20162;-82
2022/12/11 08:35:25;;;;;;;22.55;12.90;;;4.40;99.90;;;;;;4963792;28;20188;-81
2022/12/11 08:37:53;;;;;;;22.88;12.57;;;4.40;99.90;;;;;;4978512;28;20250;-79
2022/12/11 08:40:21;;;;;;;19.80;11.55;;;4.40;99.90;;;;;;4968639;28;20280;-79
2022/12/11 08:42:53;;;;;;;22.23;12.52;;;4.40;99.90;;;;;;4964583;28;20218;-75
2022/12/11 08:45:19;;;;;;;15.18;9.80;;;4.40;99.90;;;;;;4982959;28;20207;-79
2022/12/11 08:47:45;;;;;;;21.00;11.85;;;4.40;99.90;;;;;;4978104;28;20206;-76
2022/12/11 08:50:17;;;;;;;18.00;10.60;;;4.40;99.90;;;;;;4995113;28;20206;-78
2022/12/11 08:52:43;;;;;;;18.45;11.18;;;4.40;99.90;;;;;;4976265;28;21093;-79
2022/12/11 08:55:09;;;;;;;18.10;10.67;;;4.40;99.90;;;;;;4976561;28;20213;-78
2022/12/11 08:57:39;;;;;;;19.57;10.80;;;4.40;99.90;;;;;;4960915;28;20435;-78
2022/12/11 09:00:08;;;;;;;21.95;12.00;;;4.40;99.90;;;;;;4961072;28;20468;-78
2022/12/11 09:02:34;;;;;;;24.85;12.40;;;4.40;99.90;;;;;;4959621;28;21020;-79
2022/12/11 09:05:06;;;;;;;20.83;11.32;;;4.40;99.90;;;;;;4994330;28;20194;-78
2022/12/11 09:07:37;;;;;;;18.38;10.70;;;4.40;99.90;;;;;;4943204;28;20202;-78
2022/12/11 09:10:05;;;;;;;17.27;10.30;;;4.40;99.90;;;;;;4976757;28;20186;-80
2022/12/11 09:12:34;;;;;;;19.42;11.60;;;4.40;99.90;;;;;;4960642;28;20214;-79
2022/12/11 09:15:00;;;;;;;17.63;10.60;;;4.40;99.90;;;;;;4993828;28;20190;-78
2022/12/11 09:17:26;;;;;;;19.48;11.02;;;4.40;99.90;;;;;;4994325;28;20166;-79
2022/12/11 09:19:52;;;;;;;19.33;11.02;;;4.40;99.90;;;;;;4959864;28;20186;-78
2022/12/11 09:22:20;;;;;;;17.55;10.70;;;4.40;99.90;;;;;;4959872;28;20652;-78
2022/12/11 09:24:46;;;;;;;19.88;10.57;;;4.40;99.90;;;;;;4960238;28;20174;-78
2022/12/11 09:27:13;;;;;;;17.88;9.57;;;4.40;99.90;;;;;;4976247;28;20222;-78
2022/12/11 09:29:38;;;;;;;22.67;13.30;;;4.40;99.90;;;;;;4959957;28;20651;-78
2022/12/11 09:32:07;;;;;;;19.37;10.30;;;4.40;99.90;;;;;;4975711;28;20301;-78
2022/12/11 09:34:39;;;;;;;18.80;9.98;;;4.40;99.90;;;;;;4993633;28;20541;-78
2022/12/11 09:37:05;;;;;;;20.17;10.98;;;4.40;99.90;;;;;;4975906;28;20175;-78
2022/12/11 09:39:31;;;;;;;17.83;10.50;;;4.40;99.90;;;;;;4976120;28;20190;-78
2022/12/11 09:42:19;;;;;;;23.10;11.00;;;4.40;99.90;;;;;;4976064;28;21024;-78
2022/12/11 09:44:56;;;;;;;17.02;9.93;;;4.40;99.90;;;;;;4993397;28;20468;-78
2022/12/11 09:47:33;;;;;;;19.88;10.85;;;4.40;99.90;;;;;;4974053;28;20209;-78
2022/12/11 09:50:12;;;;;;;23.42;10.30;;;4.40;99.90;;;;;;4977101;28;20253;-78
2022/12/11 09:52:38;;;;;;;16.83;9.70;;;4.40;99.90;;;;;;4994762;28;20279;-78
2022/12/11 09:55:16;;;;;;;19.47;10.40;;;4.40;99.90;;;;;;4977616;28;20281;-78
2022/12/11 09:58:13;;;;;;;15.57;8.23;;;4.40;99.90;;;;;;4977492;28;21095;-78
2022/12/11 10:00:48;;;;;;;15.60;9.63;;;4.40;99.90;;;;;;4995082;28;20266;-78
2022/12/11 10:03:20;;;;;;;15.85;9.95;;;4.40;99.90;;;;;;4943694;28;20597;-80
2022/12/11 10:06:01;;;;;;;15.75;9.82;;;4.40;99.90;;;;;;4928387;28;20245;-79
2022/12/11 10:08:42;;;;;;;19.25;10.20;;;4.40;99.90;;;;;;4977967;28;20570;-76
2022/12/11 10:11:47;;;;;;;14.93;8.55;;;4.40;99.90;;;;;;4968480;28;20202;-79
2022/12/11 10:14:22;;;;;;;16.17;10.63;;;4.40;99.90;;;;;;4940505;28;20192;-79
2022/12/11 10:16:56;;;;;;;16.40;8.85;;;4.40;99.90;;;;;;4980881;28;20210;-79
2022/12/11 10:19:30;;;;;;;20.48;10.52;;;4.40;99.90;;;;;;4948340;28;20245;-79
2022/12/11 10:21:58;;;;;;;15.07;9.50;;;4.40;99.90;;;;;;4964699;28;20214;-79
2022/12/11 10:24:38;;;;;;;13.55;8.35;;;4.40;99.90;;;;;;4980529;28;20202;-78
2022/12/11 10:27:18;;;;;;;14.82;8.57;;;4.40;99.90;;;;;;4964671;28;20182;-79
2022/12/11 10:29:51;;;;;;;15.13;8.88;;;4.40;99.90;;;;;;4980255;28;20205;-79
2022/12/11 10:32:23;;;;;;;15.45;8.70;;;4.40;99.90;;;;;;4963971;28;20300;-82
2022/12/11 10:35:02;;;;;;;14.57;9.32;;;4.40;99.90;;;;;;4981303;28;20154;-81
2022/12/11 10:37:28;;;;;;;14.00;9.38;;;4.40;99.90;;;;;;4980434;28;20594;-79
2022/12/11 10:39:56;;;;;;;14.37;8.37;;;4.40;99.90;;;;;;4979324;28;20179;-81
2022/12/11 10:42:22;;;;;;;15.75;8.60;;;4.40;99.90;;;;;;4979289;28;20468;-79
2022/12/11 10:45:03;;;;;;;18.15;9.82;;;4.40;99.90;;;;;;4979264;28;20182;-80
2022/12/11 10:47:32;;;;;;;15.10;8.85;;;4.40;99.90;;;;;;4981791;28;20183;-80
2022/12/11 10:50:04;;;;;;;12.98;8.48;;;4.40;99.90;;;;;;4981374;28;20206;-76
2022/12/11 10:52:32;;;;;;;14.13;8.65;;;4.40;99.90;;;;;;4979570;28;20261;-80
2022/12/11 10:54:58;;;;;;;16.15;8.90;;;4.40;99.90;;;;;;4978270;28;20186;-79
2022/12/11 10:57:34;;;;;;;14.67;7.87;;;4.50;99.90;;;;;;4980181;28;20174;-78
2022/12/11 11:00:05;;;;;;;17.52;10.65;;;4.40;99.90;;;;;;4963908;28;20548;-79
2022/12/11 11:02:34;;;;;;;20.23;11.20;;;4.40;99.90;;;;;;4978183;28;20642;-79
2022/12/11 11:05:15;;;;;;;17.00;10.80;;;4.10;99.90;;;;;;4980336;28;20628;-79
2022/12/11 11:07:42;;;;;;;19.73;10.90;;;3.80;99.90;;;;;;4997588;28;20190;-79
2022/12/11 11:10:12;;;;;;;25.33;11.73;;;3.50;99.90;;;;;;4977035;28;20198;-79
2022/12/11 11:12:45;;;;;;;22.23;11.32;;;3.30;99.90;;;;;;4977768;28;20207;-78
2022/12/11 11:15:24;;;;;;;17.92;11.45;;;2.90;99.90;;;;;;4998068;28;20186;-79
2022/12/11 11:17:53;;;;;;;25.15;12.07;;;2.70;99.90;;;;;;4979332;28;20162;-76
2022/12/11 11:20:25;;;;;;;18.55;11.45;;;2.50;99.90;;;;;;4977875;28;20185;-78
2022/12/11 11:22:57;;;;;;;18.23;10.77;;;2.30;99.90;;;;;;4978961;28;20229;-79
2022/12/11 11:25:25;;;;;;;23.65;12.68;;;2.10;99.90;;;;;;4948583;28;20180;-79
2022/12/11 11:28:16;;;;;;;21.75;13.07;;;2.00;99.90;;;;;;4964738;28;20178;-79
2022/12/11 11:30:56;;;;;;;23.85;12.70;;;2.00;99.90;;;;;;4980530;28;20225;-79
2022/12/11 11:33:22;;;;;;;22.05;11.60;;;1.90;99.90;;;;;;4981479;28;20186;-79
2022/12/11 11:35:53;;;;;;;23.85;13.07;;;2.00;99.90;;;;;;4949073;28;20657;-78
2022/12/11 11:38:34;;;;;;;21.52;12.35;;;2.00;99.90;;;;;;4964569;28;20178;-79
2022/12/11 11:41:09;;;;;;;23.50;12.73;;;1.80;99.90;;;;;;4979147;28;20350;-79
2022/12/11 11:43:43;;;;;;;28.65;12.27;;;1.90;99.90;;;;;;4964086;28;20662;-77
2022/12/11 11:46:26;;;;;;;23.17;13.55;;;2.10;99.90;;;;;;4948506;28;20273;-79
2022/12/11 11:49:14;;;;;;;26.23;14.40;;;2.20;99.90;;;;;;4980051;28;20206;-79
2022/12/11 11:51:49;;;;;;;31.10;14.55;;;2.40;99.90;;;;;;4964387;28;20210;-79
2022/12/11 11:54:53;;;;;;;23.42;13.00;;;2.50;99.90;;;;;;4997533;28;20170;-80
2022/12/11 11:57:43;;;;;;;24.17;13.50;;;2.70;99.90;;;;;;4979701;28;20201;-78
2022/12/11 12:00:28;;;;;;;26.52;12.82;;;2.80;99.90;;;;;;4979408;28;20198;-79
2022/12/11 12:03:00;;;;;;;21.88;13.18;;;2.90;99.90;;;;;;4980224;28;20213;-79
2022/12/11 12:05:42;;;;;;;24.65;12.90;;;3.00;99.90;;;;;;4962376;28;20214;-78
2022/12/11 12:08:27;;;;;;;22.60;13.00;;;3.10;99.90;;;;;;4978105;28;20213;-78
2022/12/11 12:11:18;;;;;;;24.20;13.38;;;3.20;99.90;;;;;;4999284;28;20217;-76
2022/12/11 12:13:49;;;;;;;23.20;12.80;;;3.20;99.90;;;;;;4973435;28;20159;-74
2022/12/11 12:16:35;;;;;;;25.27;12.73;;;3.30;99.90;;;;;;4974708;28;20183;-74
2022/12/11 12:19:13;;;;;;;22.25;12.65;;;3.40;99.90;;;;;;4922995;28;20624;-74
2022/12/11 12:21:44;;;;;;;21.35;11.95;;;3.50;99.90;;;;;;4990843;28;20778;-75
2022/12/11 12:24:45;;;;;;;25.42;11.82;;;3.50;99.90;;;;;;4959918;28;20209;-75
2022/12/11 12:27:22;;;;;;;26.75;11.40;;;3.60;99.90;;;;;;4959754;28;20214;-75
2022/12/11 12:30:10;;;;;;;21.98;11.80;;;3.70;99.90;;;;;;4968007;28;20521;-76
2022/12/11 12:33:00;;;;;;;23.35;12.98;;;3.80;99.90;;;;;;4970281;28;20222;-77
2022/12/11 12:35:33;;;;;;;22.42;12.18;;;3.80;99.90;;;;;;4958121;28;20182;-80
2022/12/11 12:38:27;;;;;;;19.95;10.65;;;3.90;99.90;;;;;;4962077;28;20205;-77
2022/12/11 12:41:18;;;;;;;18.98;11.98;;;3.90;99.90;;;;;;4957314;28;20230;-78
2022/12/11 12:43:58;;;;;;;19.67;11.77;;;4.00;99.90;;;;;;4941978;28;20250;-78
2022/12/11 12:46:47;;;;;;;15.35;10.70;;;4.00;99.90;;;;;;4957571;28;20285;-78
2022/12/11 12:49:39;;;;;;;17.50;10.35;;;4.10;99.90;;;;;;4957619;28;20174;-75
2022/12/11 12:52:20;;;;;;;20.92;11.80;;;4.10;99.90;;;;;;4978543;28;20209;-78
2022/12/11 12:57:39;;;;;;;19.20;10.95;;;4.20;99.90;;;;;;4961290;28;20213;-77
2022/12/11 13:00:07;;;;;;;20.10;11.80;;;4.20;99.90;;;;;;4976504;28;20166;-77
2022/12/11 13:02:49;;;;;;;17.45;11.20;;;4.20;99.90;;;;;;4960621;28;20221;-77
2022/12/11 13:05:33;;;;;;;15.88;10.25;;;4.20;99.90;;;;;;4979255;28;20178;-78
2022/12/11 13:08:04;;;;;;;17.45;10.93;;;4.20;99.90;;;;;;4976866;28;20170;-78
2022/12/11 13:10:35;;;;;;;17.50;10.57;;;4.30;99.90;;;;;;4992740;28;20648;-77
2022/12/11 13:13:03;;;;;;;19.55;11.55;;;4.30;99.90;;;;;;4970310;28;20189;-77
2022/12/11 13:15:42;;;;;;;18.02;10.88;;;4.30;99.90;;;;;;4979552;28;20194;-75